Time;durP1;ratioP1;P1;durP2;ratioP2;P2;SDS_P1;SDS_P2;PMS_P1;PMS_P2;Temp;Humidity;BMP_temperature;BMP_pressure;BME280_temperature;BME280_humidity;BME280_pressure;Samples;Min_cycle;Max_cycle;Signal;HPM_P1;HPM_P2
2021/12/02 00:00:59;;;;;;;11.57;2.10;;;4.40;99.90;;;;;;5017991;28;20042;-66
2021/12/02 00:03:26;;;;;;;15.73;2.83;;;4.30;99.90;;;;;;5003628;28;20129;-66
2021/12/02 00:05:52;;;;;;;11.32;2.28;;;4.20;99.90;;;;;;5009582;28;20056;-66
2021/12/02 00:08:18;;;;;;;11.68;3.30;;;4.20;99.90;;;;;;5022905;28;20038;-66
2021/12/02 00:10:44;;;;;;;7.25;2.45;;;4.20;99.90;;;;;;5021157;28;20046;-66
2021/12/02 00:13:11;;;;;;;13.23;3.70;;;4.20;99.90;;;;;;5018214;28;20045;-65
2021/12/02 00:16:21;;;;;;;8.13;2.10;;;4.10;99.90;;;;;;5021675;28;20073;-66
2021/12/02 00:21:02;;;;;;;8.65;2.45;;;4.10;99.90;;;;;;4998071;28;20233;-66
2021/12/02 00:21:26;;;;;;;7.35;2.65;;;4.00;99.90;;;;;;5008821;28;20037;-65
2021/12/02 00:23:58;;;;;;;13.95;3.35;;;4.00;99.90;;;;;;5003465;28;20138;-66
2021/12/02 00:26:24;;;;;;;9.30;2.15;;;4.00;99.90;;;;;;5006878;28;20081;-66
2021/12/02 00:28:53;;;;;;;22.90;3.20;;;4.00;99.90;;;;;;5021262;28;20046;-65
2021/12/02 00:31:22;;;;;;;13.30;2.60;;;4.00;99.90;;;;;;5022322;28;20045;-65
2021/12/02 00:33:53;;;;;;;16.45;2.65;;;4.00;99.90;;;;;;5021261;28;20073;-65
2021/12/02 00:36:24;;;;;;;15.10;2.13;;;4.00;99.90;;;;;;5020188;28;20106;-66
2021/12/02 00:38:51;;;;;;;10.20;2.47;;;4.00;99.90;;;;;;5020408;28;20137;-66
2021/12/02 00:41:19;;;;;;;6.07;1.90;;;4.00;99.90;;;;;;5021947;28;20101;-66
2021/12/02 00:43:47;;;;;;;14.45;2.63;;;3.90;99.90;;;;;;5020241;28;20033;-66
2021/12/02 00:46:16;;;;;;;11.75;2.30;;;3.90;99.90;;;;;;5007237;28;20050;-66
2021/12/02 00:48:42;;;;;;;8.10;2.28;;;3.90;99.90;;;;;;5025400;28;20065;-66
2021/12/02 00:51:09;;;;;;;9.95;2.50;;;4.00;99.90;;;;;;5024940;28;20497;-66
2021/12/02 00:53:38;;;;;;;9.95;2.28;;;4.00;99.90;;;;;;5024156;28;20076;-65
2021/12/02 00:56:06;;;;;;;8.65;2.15;;;4.00;99.90;;;;;;5006957;28;20057;-66
2021/12/02 00:58:33;;;;;;;10.02;2.97;;;4.00;99.90;;;;;;5004617;28;20064;-66
2021/12/02 01:01:00;;;;;;;8.40;2.08;;;4.00;99.90;;;;;;5025904;28;20100;-65
2021/12/02 01:03:32;;;;;;;9.52;2.05;;;4.00;99.90;;;;;;5024306;28;20045;-65
2021/12/02 01:05:59;;;;;;;10.93;1.92;;;4.00;99.90;;;;;;5024247;28;20042;-66
2021/12/02 01:08:27;;;;;;;11.90;2.88;;;4.00;99.90;;;;;;5025574;28;20093;-65
2021/12/02 01:10:53;;;;;;;11.57;2.28;;;4.00;99.90;;;;;;5025807;28;20042;-66
2021/12/02 01:13:20;;;;;;;10.40;2.05;;;4.00;99.90;;;;;;5025692;28;20054;-66
2021/12/02 01:15:46;;;;;;;11.18;2.22;;;4.00;99.90;;;;;;5023967;28;20041;-66
2021/12/02 01:18:12;;;;;;;10.85;2.25;;;4.00;99.90;;;;;;5023828;28;20364;-66
2021/12/02 01:20:39;;;;;;;12.13;1.90;;;4.00;99.90;;;;;;5040411;28;20084;-66
2021/12/02 01:23:06;;;;;;;5.93;1.90;;;4.00;99.90;;;;;;5025024;28;20053;-65
2021/12/02 01:25:34;;;;;;;5.65;1.77;;;4.00;99.90;;;;;;5022833;28;20125;-66
2021/12/02 01:28:00;;;;;;;5.95;2.10;;;4.10;99.90;;;;;;5023671;28;20054;-66
2021/12/02 01:30:27;;;;;;;;;;;4.10;99.90;;;;;;5026115;28;20034;-66
2021/12/02 01:32:59;;;;;;;7.65;1.92;;;4.00;99.90;;;;;;5023727;28;19921;-67
2021/12/02 01:35:26;;;;;;;9.13;2.00;;;4.00;99.90;;;;;;5023435;28;20049;-66
2021/12/02 01:37:53;;;;;;;9.35;1.95;;;4.00;99.90;;;;;;5025546;28;20125;-66
2021/12/02 01:40:19;;;;;;;7.15;1.63;;;4.00;99.90;;;;;;5025294;28;20058;-66
2021/12/02 01:42:47;;;;;;;4.57;1.83;;;4.00;99.90;;;;;;5024891;28;20038;-65
2021/12/02 01:45:19;;;;;;;8.65;2.72;;;4.00;99.90;;;;;;5022290;28;20073;-66
2021/12/02 01:47:48;;;;;;;5.60;1.60;;;3.90;99.90;;;;;;5023347;28;20160;-65
2021/12/02 01:50:20;;;;;;;10.02;1.80;;;3.80;99.90;;;;;;5025335;28;20045;-66
2021/12/02 01:53:00;;;;;;;6.97;1.42;;;3.80;99.90;;;;;;5007490;28;20187;-66
2021/12/02 01:55:27;;;;;;;5.55;1.52;;;3.80;99.90;;;;;;5020557;28;20058;-66
2021/12/02 01:58:02;;;;;;;7.55;1.85;;;3.80;99.90;;;;;;5024852;28;20069;-66
2021/12/02 02:00:32;;;;;;;7.95;1.83;;;3.80;99.90;;;;;;5022361;28;20050;-65
2021/12/02 02:03:02;;;;;;;7.25;1.55;;;3.70;99.90;;;;;;5009735;28;20061;-66
2021/12/02 02:05:28;;;;;;;5.47;1.58;;;3.70;99.90;;;;;;5024777;28;20049;-66
2021/12/02 02:08:21;;;;;;;9.38;1.83;;;3.70;99.90;;;;;;5022981;28;20066;-66
2021/12/02 02:10:49;;;;;;;8.05;1.63;;;3.70;99.90;;;;;;5008231;28;20050;-66
2021/12/02 02:13:17;;;;;;;5.75;1.95;;;3.60;99.90;;;;;;5024320;28;20050;-65
2021/12/02 02:15:47;;;;;;;7.88;1.50;;;3.60;99.90;;;;;;5024570;28;20042;-65
2021/12/02 02:18:20;;;;;;;9.02;1.80;;;3.60;99.90;;;;;;5022378;28;20129;-65
2021/12/02 02:21:00;;;;;;;6.35;2.00;;;3.50;99.90;;;;;;5023796;28;20060;-65
2021/12/02 02:23:29;;;;;;;5.85;1.80;;;3.60;99.90;;;;;;5022942;28;20115;-65
2021/12/02 02:25:55;;;;;;;7.07;1.70;;;3.60;99.90;;;;;;5007280;28;20097;-65
2021/12/02 02:28:21;;;;;;;10.48;1.80;;;3.60;99.90;;;;;;5014421;28;20141;-65
2021/12/02 02:30:47;;;;;;;9.68;1.92;;;3.60;99.90;;;;;;5022739;28;20133;-66
2021/12/02 02:33:15;;;;;;;7.35;1.70;;;3.60;99.90;;;;;;5024251;28;20061;-66
2021/12/02 02:35:42;;;;;;;10.98;1.83;;;3.60;99.90;;;;;;5022725;28;20069;-65
2021/12/02 02:38:09;;;;;;;8.93;1.90;;;3.60;99.90;;;;;;5039056;28;20093;-65
2021/12/02 02:40:36;;;;;;;;;;;3.60;99.90;;;;;;5023118;28;20109;-65
2021/12/02 02:43:08;;;;;;;11.93;2.90;;;3.50;99.90;;;;;;5023734;28;19993;-66
2021/12/02 02:45:36;;;;;;;6.95;1.98;;;3.60;99.90;;;;;;5019562;28;20057;-65
2021/12/02 02:48:02;;;;;;;9.18;2.10;;;3.60;99.90;;;;;;5023924;28;20038;-65
2021/12/02 02:50:30;;;;;;;8.98;1.73;;;3.70;99.90;;;;;;5024211;28;20544;-66
2021/12/02 02:53:18;;;;;;;5.05;1.88;;;3.70;99.90;;;;;;5022403;28;20093;-65
2021/12/02 02:56:01;;;;;;;11.15;2.17;;;3.70;99.90;;;;;;5022103;28;20046;-65
2021/12/02 03:04:03;;;;;;;13.05;2.60;;;3.70;99.90;;;;;;5004636;28;20196;-65
2021/12/02 03:06:44;;;;;;;8.40;2.33;;;3.70;99.90;;;;;;5006381;28;20050;-66
2021/12/02 03:11:49;;;;;;;5.25;1.33;;;3.60;99.90;;;;;;5023306;28;20124;-65
2021/12/02 03:14:19;;;;;;;7.43;1.30;;;3.60;99.90;;;;;;5021986;28;20050;-66
2021/12/02 03:16:45;;;;;;;6.82;1.65;;;3.60;99.90;;;;;;5022039;28;20034;-65
2021/12/02 03:19:21;;;;;;;2.63;0.88;;;3.50;99.90;;;;;;5017393;28;20070;-65
2021/12/02 03:21:47;;;;;;;1.60;0.60;;;3.40;99.90;;;;;;5011542;28;20042;-65
2021/12/02 03:24:13;;;;;;;4.97;1.45;;;3.40;99.90;;;;;;5013685;28;20077;-65
2021/12/02 03:26:40;;;;;;;5.85;1.08;;;3.30;99.90;;;;;;5021356;28;20457;-65
2021/12/02 03:29:05;;;;;;;1.33;0.77;;;3.20;99.90;;;;;;5020487;28;20042;-66
2021/12/02 03:31:32;;;;;;;1.35;0.88;;;3.10;99.90;;;;;;5022973;28;20073;-65
2021/12/02 03:33:59;;;;;;;1.77;0.75;;;3.00;99.90;;;;;;5023691;28;20141;-65
2021/12/02 03:36:24;;;;;;;3.10;0.85;;;3.00;99.90;;;;;;5022431;28;20096;-66
2021/12/02 03:38:50;;;;;;;0.70;0.60;;;2.90;99.90;;;;;;5021383;28;20045;-66
2021/12/02 03:41:17;;;;;;;5.93;0.93;;;2.90;99.90;;;;;;5021004;28;20081;-66
2021/12/02 03:43:45;;;;;;;2.75;1.20;;;2.80;99.90;;;;;;5023042;28;20038;-66
2021/12/02 03:46:13;;;;;;;2.35;1.23;;;2.80;99.90;;;;;;5021628;28;20058;-66
2021/12/02 03:48:39;;;;;;;2.72;0.75;;;2.80;99.90;;;;;;5021929;28;20086;-66
2021/12/02 03:51:07;;;;;;;2.92;0.90;;;2.70;99.90;;;;;;5012226;28;20053;-66
2021/12/02 03:53:33;;;;;;;3.05;0.80;;;2.70;99.90;;;;;;5021360;28;20052;-65
2021/12/02 03:56:01;;;;;;;2.60;0.85;;;2.70;99.90;;;;;;5022825;28;20038;-65
2021/12/02 03:58:27;;;;;;;0.98;0.75;;;2.70;99.90;;;;;;5022890;28;20050;-65
2021/12/02 04:00:53;;;;;;;0.32;0.22;;;2.70;99.90;;;;;;5022728;28;20098;-66
2021/12/02 04:03:18;;;;;;;1.40;0.77;;;2.70;99.90;;;;;;5004936;28;20125;-65
2021/12/02 04:05:44;;;;;;;1.47;0.60;;;2.60;99.90;;;;;;4989151;28;20094;-65
2021/12/02 04:08:11;;;;;;;4.27;1.10;;;2.60;99.90;;;;;;5021430;28;20095;-65
2021/12/02 04:10:39;;;;;;;1.95;1.25;;;2.60;99.90;;;;;;5019363;28;20289;-65
2021/12/02 04:15:40;;;;;;;1.40;0.98;;;2.60;99.90;;;;;;5021274;28;20125;-66
2021/12/02 04:18:07;;;;;;;1.48;0.82;;;2.50;99.90;;;;;;5003840;28;20139;-65
2021/12/02 04:20:33;;;;;;;2.40;0.85;;;2.50;99.90;;;;;;5014992;28;20049;-65
2021/12/02 04:22:59;;;;;;;3.53;0.85;;;2.50;99.90;;;;;;5025280;28;20049;-65
2021/12/02 04:25:26;;;;;;;2.40;0.95;;;2.50;99.90;;;;;;5026917;28;20050;-65
2021/12/02 04:27:52;;;;;;;2.08;0.98;;;2.60;99.90;;;;;;5024953;28;20038;-65
2021/12/02 04:30:24;;;;;;;3.88;1.55;;;2.60;99.90;;;;;;5026281;28;20046;-66
2021/12/02 04:32:50;;;;;;;5.53;0.98;;;2.70;99.90;;;;;;5024738;28;20057;-65
2021/12/02 04:35:16;;;;;;;4.55;1.15;;;2.70;99.90;;;;;;5025170;28;20064;-65
2021/12/02 04:37:44;;;;;;;6.57;1.30;;;2.80;99.90;;;;;;5026498;28;20042;-66
2021/12/02 04:40:11;;;;;;;2.97;1.25;;;2.80;99.90;;;;;;5024643;28;20053;-66
2021/12/02 04:42:37;;;;;;;6.68;1.52;;;2.80;99.90;;;;;;5024422;28;20053;-66
2021/12/02 04:45:04;;;;;;;4.10;1.20;;;2.80;99.90;;;;;;5018946;28;20042;-67
2021/12/02 04:47:30;;;;;;;;;;;2.80;99.90;;;;;;5025971;28;20037;-65
2021/12/02 04:49:55;;;;;;;4.65;1.40;;;2.70;99.90;;;;;;5026556;28;19975;-66
2021/12/02 04:52:21;;;;;;;7.57;1.27;;;2.70;99.90;;;;;;5024637;28;20046;-66
2021/12/02 04:54:47;;;;;;;6.70;1.33;;;2.70;99.90;;;;;;5026314;28;20053;-66
2021/12/02 04:57:13;;;;;;;7.38;1.45;;;2.60;99.90;;;;;;5025547;28;20112;-67
2021/12/02 04:59:38;;;;;;;2.72;1.25;;;2.60;99.90;;;;;;5026292;28;20042;-67
2021/12/02 05:02:04;;;;;;;2.97;1.37;;;2.60;99.90;;;;;;5016591;28;20053;-68
2021/12/02 05:04:29;;;;;;;3.83;1.13;;;2.60;99.90;;;;;;5006457;28;20065;-68
2021/12/02 05:06:55;;;;;;;7.00;1.67;;;2.60;99.90;;;;;;5017057;28;20050;-68
2021/12/02 05:09:21;;;;;;;5.10;1.00;;;2.60;99.90;;;;;;5024681;28;20217;-68
2021/12/02 05:11:47;;;;;;;2.73;1.07;;;2.60;99.90;;;;;;5024939;28;20057;-67
2021/12/02 05:14:12;;;;;;;4.03;1.40;;;2.60;99.90;;;;;;5024139;28;20113;-67
2021/12/02 05:16:39;;;;;;;2.83;1.27;;;2.60;99.90;;;;;;5025375;28;20049;-67
2021/12/02 05:19:05;;;;;;;6.15;1.40;;;2.70;99.90;;;;;;5025854;28;20061;-67
2021/12/02 05:21:31;;;;;;;2.08;1.23;;;2.70;99.90;;;;;;5016198;28;20046;-67
2021/12/02 05:23:57;;;;;;;10.18;2.28;;;2.70;99.90;;;;;;5024365;28;20081;-67
2021/12/02 05:26:25;;;;;;;3.95;2.20;;;2.70;99.90;;;;;;5023869;28;20046;-68
2021/12/02 05:28:52;;;;;;;3.65;1.00;;;2.70;99.90;;;;;;5025658;28;20416;-68
2021/12/02 05:31:18;;;;;;;6.95;1.10;;;2.70;99.90;;;;;;5005834;28;20049;-69
2021/12/02 05:33:44;;;;;;;1.55;0.80;;;2.70;99.90;;;;;;5025424;28;20094;-68
2021/12/02 05:36:10;;;;;;;3.03;1.23;;;2.60;99.90;;;;;;5025128;28;20050;-68
2021/12/02 05:38:36;;;;;;;4.17;1.30;;;2.60;99.90;;;;;;5026021;28;20312;-68
2021/12/02 05:41:03;;;;;;;5.22;1.38;;;2.60;99.90;;;;;;5025063;28;20425;-68
2021/12/02 05:43:29;;;;;;;7.60;0.95;;;2.60;99.90;;;;;;5024729;28;20038;-68
2021/12/02 05:45:55;;;;;;;2.08;0.70;;;2.60;99.90;;;;;;5007059;28;20044;-68
2021/12/02 05:48:21;;;;;;;1.52;0.73;;;2.60;99.90;;;;;;5023759;28;20045;-67
2021/12/02 05:50:46;;;;;;;5.13;1.43;;;2.60;99.90;;;;;;5025249;28;20120;-68
2021/12/02 05:53:12;;;;;;;2.30;1.20;;;2.50;99.90;;;;;;5023459;28;20064;-68
2021/12/02 05:55:38;;;;;;;5.50;1.60;;;2.50;99.90;;;;;;5022364;28;20504;-68
2021/12/02 05:58:06;;;;;;;8.53;1.43;;;2.50;99.90;;;;;;5023425;28;20042;-68
2021/12/02 06:00:33;;;;;;;1.80;1.00;;;2.50;99.90;;;;;;5025027;28;20415;-68
2021/12/02 06:02:59;;;;;;;;;;;2.50;99.90;;;;;;5011486;28;20056;-68
2021/12/02 06:05:24;;;;;;;3.75;1.40;;;2.40;99.90;;;;;;5017117;28;20012;-68
2021/12/02 06:07:52;;;;;;;4.47;1.80;;;2.50;99.90;;;;;;5023333;28;20049;-69
2021/12/02 06:10:20;;;;;;;2.75;1.60;;;2.50;99.90;;;;;;5024754;28;20056;-68
2021/12/02 06:12:46;;;;;;;3.15;1.55;;;2.50;99.90;;;;;;5024055;28;20038;-67
2021/12/02 06:15:12;;;;;;;6.20;2.00;;;2.40;99.90;;;;;;5019299;28;20045;-68
2021/12/02 06:17:38;;;;;;;5.60;1.80;;;2.50;99.90;;;;;;5018254;28;20033;-68
2021/12/02 06:20:05;;;;;;;2.90;1.60;;;2.50;99.90;;;;;;5022905;28;20088;-69
2021/12/02 06:22:31;;;;;;;5.97;1.52;;;2.50;99.90;;;;;;5022447;28;20054;-63
2021/12/02 06:27:43;;;;;;;3.67;1.60;;;2.50;99.90;;;;;;5038534;28;20126;-66
2021/12/02 06:30:10;;;;;;;4.85;1.23;;;2.50;99.90;;;;;;5008593;28;20090;-72
2021/12/02 06:32:35;;;;;;;3.88;1.60;;;2.40;99.90;;;;;;5013660;28;20057;-70
2021/12/02 06:35:01;;;;;;;6.85;1.60;;;2.50;99.90;;;;;;5021049;28;20035;-69
2021/12/02 06:37:27;;;;;;;3.70;1.58;;;2.40;99.90;;;;;;5012193;28;20045;-70
2021/12/02 06:39:53;;;;;;;3.60;1.70;;;2.40;99.90;;;;;;5024316;28;20034;-67
2021/12/02 06:42:19;;;;;;;6.37;1.97;;;2.40;99.90;;;;;;5023422;28;20038;-69
2021/12/02 06:44:45;;;;;;;4.00;2.10;;;2.40;99.90;;;;;;5022417;28;20042;-70
2021/12/02 06:47:11;;;;;;;5.32;1.75;;;2.40;99.90;;;;;;5023784;28;20045;-69
2021/12/02 06:49:39;;;;;;;3.65;1.60;;;2.40;99.90;;;;;;5022572;28;20037;-63
2021/12/02 06:52:14;;;;;;;4.38;1.65;;;2.40;99.90;;;;;;5022198;28;20075;-69
2021/12/02 06:54:40;;;;;;;5.70;2.00;;;2.40;99.90;;;;;;5007430;28;20072;-75
2021/12/02 06:57:06;;;;;;;3.70;1.70;;;2.40;99.90;;;;;;5021700;28;20053;-75
2021/12/02 06:59:32;;;;;;;6.88;1.50;;;2.30;99.90;;;;;;5022567;28;20038;-72
2021/12/02 07:01:58;;;;;;;6.57;2.10;;;2.30;99.90;;;;;;5021838;28;20053;-72
2021/12/02 07:04:23;;;;;;;3.77;2.27;;;2.30;99.90;;;;;;5023611;28;20046;-83
2021/12/02 07:06:49;;;;;;;7.13;2.20;;;2.30;99.90;;;;;;5023737;28;20233;-77
2021/12/02 07:09:15;;;;;;;6.57;1.80;;;2.30;99.90;;;;;;5022577;28;20041;-78
2021/12/02 07:11:42;;;;;;;2.38;1.48;;;2.30;99.90;;;;;;5021457;28;20068;-75
2021/12/02 07:14:12;;;;;;;3.60;1.45;;;2.20;99.90;;;;;;5023753;28;20046;-75
2021/12/02 07:16:38;;;;;;;6.07;1.73;;;2.20;99.90;;;;;;5014905;28;20046;-76
2021/12/02 07:19:09;;;;;;;3.58;1.45;;;2.20;99.90;;;;;;5002230;28;20129;-73
2021/12/02 07:21:39;;;;;;;5.32;2.00;;;2.10;99.90;;;;;;5013925;28;20050;-75
2021/12/02 07:24:06;;;;;;;6.47;2.92;;;2.10;99.90;;;;;;5018831;28;20041;-75
2021/12/02 07:26:40;;;;;;;10.10;2.03;;;2.10;99.90;;;;;;5005312;28;20077;-73
2021/12/02 07:29:16;;;;;;;9.80;2.20;;;2.10;99.90;;;;;;5021534;28;20053;-72
2021/12/02 07:31:43;;;;;;;9.60;2.60;;;2.10;99.90;;;;;;5021872;28;20069;-73
2021/12/02 07:34:09;;;;;;;4.97;2.42;;;2.10;99.90;;;;;;5022084;28;20469;-74
2021/12/02 07:36:36;;;;;;;7.05;2.47;;;2.10;99.90;;;;;;5009817;28;20056;-74
2021/12/02 07:39:09;;;;;;;8.20;2.83;;;2.10;99.90;;;;;;5023101;28;20041;-70
2021/12/02 07:41:38;;;;;;;19.23;3.83;;;2.10;99.90;;;;;;5037633;28;20512;-69
2021/12/02 07:44:04;;;;;;;6.75;2.13;;;2.10;99.90;;;;;;5021298;28;20121;-67
2021/12/02 07:46:31;;;;;;;8.25;2.75;;;2.10;99.90;;;;;;5001932;28;20082;-68
2021/12/02 07:48:57;;;;;;;8.98;2.72;;;2.00;99.90;;;;;;5018328;28;20042;-70
2021/12/02 07:51:29;;;;;;;14.77;3.22;;;2.00;99.90;;;;;;5021236;28;20097;-69
2021/12/02 07:53:56;;;;;;;6.43;2.65;;;2.00;99.90;;;;;;5005020;28;20102;-68
2021/12/02 07:56:23;;;;;;;7.55;2.35;;;2.00;99.90;;;;;;5001304;28;20054;-65
2021/12/02 07:58:49;;;;;;;4.97;2.88;;;2.00;99.90;;;;;;4999629;28;20054;-66
2021/12/02 08:01:16;;;;;;;;;;;2.00;99.90;;;;;;5021893;28;20045;-67
2021/12/02 08:03:46;;;;;;;8.43;1.98;;;1.90;99.90;;;;;;5015641;28;19951;-67
2021/12/02 08:06:12;;;;;;;5.32;2.13;;;1.90;99.90;;;;;;5020880;28;20111;-67
2021/12/02 08:08:39;;;;;;;3.88;2.10;;;2.00;99.90;;;;;;5021227;28;20073;-66
2021/12/02 08:11:05;;;;;;;;;;;2.00;99.90;;;;;;5023233;28;20064;-66
2021/12/02 08:13:31;;;;;;;7.32;2.67;;;2.10;99.90;;;;;;5022467;28;19932;-66
2021/12/02 08:15:57;;;;;;;7.38;3.22;;;2.10;99.90;;;;;;5021080;28;20097;-68
2021/12/02 08:18:23;;;;;;;10.13;3.92;;;2.20;99.90;;;;;;5004540;28;20042;-68
2021/12/02 08:20:48;;;;;;;6.63;3.55;;;2.30;99.90;;;;;;5021162;28;20033;-68
2021/12/02 08:23:14;;;;;;;10.73;4.43;;;2.40;99.90;;;;;;5022457;28;20098;-68
2021/12/02 08:25:40;;;;;;;7.60;4.13;;;2.40;99.90;;;;;;5022069;28;20122;-69
2021/12/02 08:28:06;;;;;;;7.68;4.32;;;2.50;99.90;;;;;;5020938;28;20517;-69
2021/12/02 08:30:34;;;;;;;8.07;4.90;;;2.50;99.90;;;;;;5020184;28;20041;-69
2021/12/02 08:33:01;;;;;;;9.90;5.40;;;2.60;99.90;;;;;;5020619;28;20058;-68
2021/12/02 08:35:28;;;;;;;8.25;5.20;;;2.70;99.90;;;;;;5000097;28;20390;-69
2021/12/02 08:37:56;;;;;;;8.32;4.72;;;2.70;99.90;;;;;;5015717;28;20046;-68
2021/12/02 08:40:30;;;;;;;10.02;5.60;;;2.80;99.90;;;;;;5017795;28;20068;-66
2021/12/02 08:42:56;;;;;;;7.20;4.93;;;2.80;99.90;;;;;;5014423;28;20132;-67
2021/12/02 08:45:22;;;;;;;9.88;5.82;;;2.90;99.90;;;;;;5018458;28;20053;-72
2021/12/02 08:47:48;;;;;;;9.23;6.17;;;2.90;99.90;;;;;;5017639;28;20045;-64
2021/12/02 08:50:19;;;;;;;12.73;5.37;;;3.00;99.90;;;;;;5018891;28;20038;-66
2021/12/02 08:52:47;;;;;;;9.27;6.03;;;3.00;99.90;;;;;;5020190;28;20169;-73
2021/12/02 08:55:14;;;;;;;7.78;5.72;;;3.00;99.90;;;;;;5020040;28;20066;-69
2021/12/02 08:57:40;;;;;;;9.82;5.97;;;3.10;99.90;;;;;;5019050;28;20567;-67
2021/12/02 09:00:10;;;;;;;7.10;5.35;;;3.10;99.90;;;;;;5019351;28;20084;-66
2021/12/02 09:02:39;;;;;;;9.73;5.53;;;3.10;99.90;;;;;;5017245;28;20054;-69
2021/12/02 09:05:08;;;;;;;9.80;6.57;;;3.10;99.90;;;;;;5020634;28;20128;-67
2021/12/02 09:07:34;;;;;;;10.45;5.13;;;3.10;99.90;;;;;;5013709;28;20042;-65
2021/12/02 09:10:00;;;;;;;7.15;3.85;;;3.20;99.90;;;;;;5014701;28;20227;-67
2021/12/02 09:12:26;;;;;;;10.85;4.95;;;3.10;99.90;;;;;;5020083;28;20066;-66
2021/12/02 09:14:52;;;;;;;9.50;3.58;;;3.20;99.90;;;;;;5021451;28;20054;-62
2021/12/02 09:17:18;;;;;;;9.75;4.07;;;3.10;99.90;;;;;;5021413;28;20048;-67
2021/12/02 09:19:45;;;;;;;14.48;4.55;;;3.20;99.90;;;;;;5021284;28;20060;-64
2021/12/02 09:22:11;;;;;;;7.70;3.80;;;3.20;99.90;;;;;;5024117;28;20058;-66
2021/12/02 09:24:39;;;;;;;7.22;3.30;;;3.20;99.90;;;;;;5022411;28;20045;-66
2021/12/02 09:27:05;;;;;;;8.32;3.20;;;3.30;99.90;;;;;;5021304;28;20048;-64
2021/12/02 09:29:31;;;;;;;8.40;3.10;;;3.30;99.90;;;;;;5023376;28;20152;-67
2021/12/02 09:31:57;;;;;;;10.23;3.13;;;3.30;99.90;;;;;;5023191;28;20092;-66
2021/12/02 09:34:23;;;;;;;4.53;2.70;;;3.40;99.90;;;;;;5022867;28;20412;-68
2021/12/02 09:36:49;;;;;;;7.83;2.70;;;3.40;99.90;;;;;;5021158;28;20474;-66
2021/12/02 09:39:16;;;;;;;5.55;2.50;;;3.40;99.90;;;;;;5023021;28;20057;-67
2021/12/02 09:41:45;;;;;;;4.63;2.58;;;3.40;99.90;;;;;;5037474;28;20081;-68
2021/12/02 09:44:12;;;;;;;6.38;2.50;;;3.40;99.90;;;;;;5023457;28;20096;-68
2021/12/02 09:46:40;;;;;;;10.30;2.72;;;3.40;99.90;;;;;;5021835;28;20058;-68
2021/12/02 09:49:08;;;;;;;6.07;2.50;;;3.30;99.90;;;;;;5022207;28;20046;-69
2021/12/02 09:54:42;;;;;;;2.47;1.42;;;3.00;99.90;;;;;;5016742;28;20471;-69
2021/12/02 09:57:04;;;;;;;4.55;1.70;;;2.70;99.90;;;;;;5018395;28;20092;-72
2021/12/02 10:02:08;;;;;;;2.25;1.55;;;2.30;99.90;;;;;;5023755;28;20149;-68
2021/12/02 10:04:47;;;;;;;6.53;1.83;;;2.20;99.90;;;;;;5020599;28;20088;-66
2021/12/02 10:10:16;;;;;;;5.15;1.40;;;2.10;99.90;;;;;;5022168;28;20054;-68
2021/12/02 10:16:29;;;;;;;6.75;2.13;;;2.20;99.90;;;;;;5020612;28;20436;-65
2021/12/02 10:21:40;;;;;;;3.28;1.73;;;2.30;99.90;;;;;;5023164;28;20050;-67
2021/12/02 10:24:17;;;;;;;11.77;2.17;;;2.40;99.90;;;;;;5021741;28;20129;-65
2021/12/02 10:26:50;;;;;;;4.05;2.05;;;2.40;99.90;;;;;;5020225;28;20045;-65
2021/12/02 10:29:19;;;;;;;3.65;2.10;;;2.50;99.90;;;;;;5021170;28;20078;-67
2021/12/02 10:31:48;;;;;;;3.78;1.92;;;2.60;99.90;;;;;;5020793;28;20053;-66
2021/12/02 10:34:17;;;;;;;5.30;2.10;;;2.60;99.90;;;;;;5019851;28;20041;-66
2021/12/02 10:36:47;;;;;;;4.57;1.90;;;2.70;99.90;;;;;;5021840;28;20068;-67
2021/12/02 10:39:17;;;;;;;5.18;2.40;;;2.70;99.90;;;;;;5022053;28;20104;-65
2021/12/02 10:41:57;;;;;;;6.03;2.60;;;2.80;99.90;;;;;;5037324;28;20430;-63
2021/12/02 10:44:26;;;;;;;4.05;1.70;;;2.80;99.90;;;;;;5034828;28;20042;-66
2021/12/02 10:47:03;;;;;;;4.60;1.85;;;2.80;99.90;;;;;;5022308;28;20482;-66
2021/12/02 10:49:36;;;;;;;5.72;1.90;;;2.70;99.90;;;;;;5020390;28;20068;-66
2021/12/02 10:52:04;;;;;;;4.45;2.00;;;2.60;99.90;;;;;;5021095;28;20052;-69
2021/12/02 10:54:35;;;;;;;3.78;2.10;;;2.60;99.90;;;;;;5021118;28;20070;-72
2021/12/02 10:57:10;;;;;;;4.68;2.00;;;2.60;99.90;;;;;;5034102;28;20088;-68
2021/12/02 10:59:41;;;;;;;6.32;2.35;;;2.60;99.90;;;;;;5021562;28;20061;-71
2021/12/02 11:02:08;;;;;;;4.28;2.30;;;2.50;99.90;;;;;;5022038;28;20417;-70
2021/12/02 11:04:40;;;;;;;3.20;2.40;;;2.50;99.90;;;;;;5021843;28;20121;-69
2021/12/02 11:07:11;;;;;;;2.67;1.38;;;2.50;99.90;;;;;;5021113;28;20045;-70
2021/12/02 11:09:39;;;;;;;5.10;1.05;;;2.40;99.90;;;;;;5023436;28;20099;-69
2021/12/02 11:12:08;;;;;;;5.03;1.30;;;2.30;99.90;;;;;;5022522;28;20100;-70
2021/12/02 11:14:39;;;;;;;1.25;1.00;;;2.30;99.90;;;;;;5022939;28;20050;-69
2021/12/02 11:17:13;;;;;;;3.13;0.93;;;2.20;99.90;;;;;;5007192;28;20054;-69
2021/12/02 11:19:43;;;;;;;2.28;1.15;;;2.30;99.90;;;;;;5020275;28;20106;-68
2021/12/02 11:22:11;;;;;;;4.40;1.58;;;2.30;99.90;;;;;;5022563;28;20078;-65
2021/12/02 11:24:37;;;;;;;3.47;1.10;;;2.30;99.90;;;;;;5037099;28;20053;-73
2021/12/02 11:27:11;;;;;;;;;;;2.40;99.90;;;;;;5022570;28;20101;-64
2021/12/02 11:30:06;;;;;;;1.83;1.10;;;2.40;99.90;;;;;;5019832;28;20301;-69
2021/12/02 11:32:44;;;;;;;3.25;1.67;;;2.50;99.90;;;;;;5017067;28;20069;-68
2021/12/02 11:35:12;;;;;;;;;;;2.50;99.90;;;;;;5021250;28;20045;-68
2021/12/02 11:37:41;;;;;;;4.20;1.77;;;2.50;99.90;;;;;;5036439;28;19921;-68
2021/12/02 11:40:19;;;;;;;1.90;1.23;;;2.50;99.90;;;;;;5020999;28;20038;-73
2021/12/02 11:42:47;;;;;;;3.58;1.55;;;2.60;99.90;;;;;;5019988;28;20424;-66
2021/12/02 11:45:15;;;;;;;4.90;1.35;;;2.50;99.90;;;;;;5021618;28;20456;-66
2021/12/02 11:47:41;;;;;;;3.17;1.58;;;2.60;99.90;;;;;;5019699;28;20335;-64
2021/12/02 11:50:09;;;;;;;4.32;1.40;;;2.60;99.90;;;;;;5019896;28;20076;-65
2021/12/02 11:52:37;;;;;;;5.30;1.88;;;2.60;99.90;;;;;;5014975;28;20086;-67
2021/12/02 11:55:06;;;;;;;2.08;1.40;;;2.50;99.90;;;;;;5021394;28;20121;-67
2021/12/02 11:57:33;;;;;;;2.58;1.48;;;2.50;99.90;;;;;;5016193;28;20426;-66
2021/12/02 12:00:02;;;;;;;2.83;1.50;;;2.50;99.90;;;;;;5021849;28;20046;-67
2021/12/02 12:02:28;;;;;;;2.97;1.60;;;2.50;99.90;;;;;;5021189;28;20046;-67
2021/12/02 12:05:03;;;;;;;2.55;1.48;;;2.60;99.90;;;;;;5019286;28;20060;-69
2021/12/02 12:07:46;;;;;;;4.57;1.80;;;2.60;99.90;;;;;;5020313;28;20053;-66
2021/12/02 12:10:18;;;;;;;1.83;1.33;;;2.60;99.90;;;;;;5016870;28;20057;-66
2021/12/02 12:12:44;;;;;;;6.63;1.60;;;2.60;99.90;;;;;;5018942;28;20117;-68
2021/12/02 12:15:34;;;;;;;3.08;1.42;;;2.70;99.90;;;;;;5036156;28;20049;-73
2021/12/02 12:18:01;;;;;;;3.78;1.52;;;2.70;99.90;;;;;;5018952;28;20050;-72
2021/12/02 12:20:57;;;;;;;3.08;1.30;;;2.70;99.90;;;;;;5019802;28;20101;-72
2021/12/02 12:23:30;;;;;;;2.63;0.85;;;2.70;99.90;;;;;;5019277;28;20088;-72
2021/12/02 12:26:08;;;;;;;1.08;0.68;;;2.60;99.90;;;;;;5020447;28;20056;-70
2021/12/02 12:29:07;;;;;;;1.20;0.85;;;2.60;99.90;;;;;;5020269;28;20053;-62
2021/12/02 12:31:56;;;;;;;4.07;1.30;;;2.50;99.90;;;;;;5014929;28;20441;-67
2021/12/02 12:34:42;;;;;;;1.73;0.85;;;2.40;99.90;;;;;;5019529;28;20046;-72
2021/12/02 12:40:21;;;;;;;1.00;0.90;;;2.30;99.90;;;;;;4926235;29;20211;-69
2021/12/02 12:42:51;;;;;;;1.10;0.82;;;2.30;99.90;;;;;;4942687;29;20490;-71
2021/12/02 12:45:27;;;;;;;3.20;1.08;;;2.30;99.90;;;;;;4929236;29;20201;-68
2021/12/02 12:47:57;;;;;;;1.10;1.00;;;2.20;99.90;;;;;;4944308;29;20141;-68
2021/12/02 12:50:23;;;;;;;2.25;1.30;;;2.20;99.90;;;;;;4924248;29;20067;-75
2021/12/02 12:53:18;;;;;;;2.07;1.03;;;2.30;99.90;;;;;;4942700;29;20144;-63
2021/12/02 12:55:51;;;;;;;1.67;1.35;;;2.30;99.90;;;;;;4932084;29;20230;-69
2021/12/02 12:58:23;;;;;;;2.75;1.10;;;2.30;99.90;;;;;;4948994;29;20172;-66
2021/12/02 13:00:52;;;;;;;2.85;1.35;;;2.40;99.90;;;;;;4948087;29;20085;-71
2021/12/02 13:03:44;;;;;;;1.70;1.20;;;2.40;99.90;;;;;;4943256;29;20063;-65
2021/12/02 13:06:30;;;;;;;1.20;0.95;;;2.40;99.90;;;;;;4927466;29;20056;-64
2021/12/02 13:09:01;;;;;;;1.58;0.80;;;2.40;99.90;;;;;;4928448;29;20953;-69
2021/12/02 13:11:32;;;;;;;1.35;0.70;;;2.50;99.90;;;;;;4942716;29;20051;-64
2021/12/02 13:14:01;;;;;;;1.27;0.68;;;2.50;99.90;;;;;;4944126;29;20111;-66
2021/12/02 13:16:29;;;;;;;2.70;1.42;;;2.60;99.90;;;;;;4954627;28;20069;-67
2021/12/02 13:19:09;;;;;;;2.30;0.80;;;2.60;99.90;;;;;;5022380;28;20041;-66
2021/12/02 13:21:35;;;;;;;2.05;1.27;;;2.80;99.90;;;;;;4991986;28;20042;-68
2021/12/02 13:24:05;;;;;;;1.85;0.90;;;2.90;99.90;;;;;;5020308;28;20103;-63
2021/12/02 13:26:45;;;;;;;3.67;1.20;;;3.00;99.90;;;;;;5011589;28;20101;-64
2021/12/02 13:29:16;;;;;;;3.63;1.00;;;3.10;99.90;;;;;;5023588;28;20045;-65
2021/12/02 13:31:55;;;;;;;2.42;1.00;;;3.20;99.90;;;;;;5039102;28;20401;-64
2021/12/02 13:34:23;;;;;;;4.95;1.33;;;3.20;99.90;;;;;;5023702;28;20112;-64
2021/12/02 13:37:07;;;;;;;4.75;1.00;;;3.30;99.90;;;;;;5022219;28;20125;-65
2021/12/02 13:39:36;;;;;;;4.32;1.20;;;3.20;99.90;;;;;;5007104;28;20057;-63